sensor_id;sensor_type;location;lat;lon;timestamp;P1;durP1;ratioP1;P2;durP2;ratioP2
1128;SDS011;553;51.038;7.216;2022-09-21T00:00:43;6.40;;;4.53;;
1128;SDS011;553;51.038;7.216;2022-09-21T00:03:10;8.40;;;5.23;;
1128;SDS011;553;51.038;7.216;2022-09-21T00:05:37;9.50;;;5.33;;
1128;SDS011;553;51.038;7.216;2022-09-21T00:08:04;13.47;;;7.30;;
1128;SDS011;553;51.038;7.216;2022-09-21T00:10:32;12.10;;;7.67;;
1128;SDS011;553;51.038;7.216;2022-09-21T00:12:59;24.63;;;9.10;;
1128;SDS011;553;51.038;7.216;2022-09-21T00:15:28;15.73;;;6.80;;
1128;SDS011;553;51.038;7.216;2022-09-21T00:17:56;21.50;;;9.40;;
1128;SDS011;553;51.038;7.216;2022-09-21T00:20:24;14.80;;;6.93;;
1128;SDS011;553;51.038;7.216;2022-09-21T00:22:51;15.43;;;8.20;;
1128;SDS011;553;51.038;7.216;2022-09-21T00:25:18;10.37;;;6.13;;
1128;SDS011;553;51.038;7.216;2022-09-21T00:27:45;9.20;;;6.43;;
1128;SDS011;553;51.038;7.216;2022-09-21T00:30:16;14.67;;;6.37;;
1128;SDS011;553;51.038;7.216;2022-09-21T00:32:43;13.60;;;5.87;;
1128;SDS011;553;51.038;7.216;2022-09-21T00:35:10;12.13;;;5.90;;
1128;SDS011;553;51.038;7.216;2022-09-21T00:37:36;6.53;;;4.73;;
1128;SDS011;553;51.038;7.216;2022-09-21T00:40:03;11.70;;;5.30;;
1128;SDS011;553;51.038;7.216;2022-09-21T00:42:31;9.97;;;4.73;;
1128;SDS011;553;51.038;7.216;2022-09-21T00:44:59;8.00;;;4.83;;
1128;SDS011;553;51.038;7.216;2022-09-21T00:47:27;7.73;;;5.20;;
1128;SDS011;553;51.038;7.216;2022-09-21T00:49:59;8.67;;;4.37;;
1128;SDS011;553;51.038;7.216;2022-09-21T00:52:30;7.00;;;4.07;;
1128;SDS011;553;51.038;7.216;2022-09-21T00:55:07;6.47;;;3.60;;
1128;SDS011;553;51.038;7.216;2022-09-21T00:57:38;7.03;;;3.60;;
1128;SDS011;553;51.038;7.216;2022-09-21T01:00:06;3.93;;;3.20;;
1128;SDS011;553;51.038;7.216;2022-09-21T01:02:35;5.30;;;3.60;;
1128;SDS011;553;51.038;7.216;2022-09-21T01:05:06;6.73;;;3.20;;
1128;SDS011;553;51.038;7.216;2022-09-21T01:07:35;3.47;;;2.60;;
1128;SDS011;553;51.038;7.216;2022-09-21T01:10:09;7.07;;;3.10;;
1128;SDS011;553;51.038;7.216;2022-09-21T01:13:30;3.90;;;2.90;;
1128;SDS011;553;51.038;7.216;2022-09-21T01:16:03;5.20;;;3.30;;
1128;SDS011;553;51.038;7.216;2022-09-21T01:18:47;5.00;;;2.83;;
1128;SDS011;553;51.038;7.216;2022-09-21T01:21:24;4.77;;;2.87;;
1128;SDS011;553;51.038;7.216;2022-09-21T01:24:02;4.27;;;2.70;;
1128;SDS011;553;51.038;7.216;2022-09-21T01:27:06;5.00;;;3.50;;
1128;SDS011;553;51.038;7.216;2022-09-21T01:29:43;7.83;;;4.10;;
1128;SDS011;553;51.038;7.216;2022-09-21T01:32:27;8.83;;;4.10;;
1128;SDS011;553;51.038;7.216;2022-09-21T01:37:41;4.93;;;4.23;;
1128;SDS011;553;51.038;7.216;2022-09-21T01:40:19;4.80;;;3.70;;
1128;SDS011;553;51.038;7.216;2022-09-21T01:42:50;5.80;;;3.60;;
1128;SDS011;553;51.038;7.216;2022-09-21T01:45:22;5.60;;;3.40;;
1128;SDS011;553;51.038;7.216;2022-09-21T01:47:58;4.40;;;3.30;;
1128;SDS011;553;51.038;7.216;2022-09-21T01:50:28;7.23;;;3.93;;
1128;SDS011;553;51.038;7.216;2022-09-21T01:53:04;6.90;;;3.47;;
1128;SDS011;553;51.038;7.216;2022-09-21T01:55:52;5.97;;;3.43;;
1128;SDS011;553;51.038;7.216;2022-09-21T01:58:32;7.73;;;3.83;;
1128;SDS011;553;51.038;7.216;2022-09-21T02:01:04;3.67;;;2.43;;
1128;SDS011;553;51.038;7.216;2022-09-21T02:03:41;6.00;;;3.20;;
1128;SDS011;553;51.038;7.216;2022-09-21T02:06:12;5.87;;;3.83;;
1128;SDS011;553;51.038;7.216;2022-09-21T02:08:41;6.73;;;3.40;;
1128;SDS011;553;51.038;7.216;2022-09-21T02:11:09;5.50;;;3.03;;
1128;SDS011;553;51.038;7.216;2022-09-21T02:13:39;4.37;;;3.77;;
1128;SDS011;553;51.038;7.216;2022-09-21T02:21:33;6.50;;;3.87;;
1128;SDS011;553;51.038;7.216;2022-09-21T02:24:39;7.00;;;3.30;;
1128;SDS011;553;51.038;7.216;2022-09-21T02:30:04;4.83;;;2.67;;
1128;SDS011;553;51.038;7.216;2022-09-21T02:35:31;14.00;;;4.20;;
1128;SDS011;553;51.038;7.216;2022-09-21T02:38:24;7.10;;;3.67;;
1128;SDS011;553;51.038;7.216;2022-09-21T02:41:18;7.37;;;3.60;;
1128;SDS011;553;51.038;7.216;2022-09-21T02:46:28;9.43;;;4.23;;
1128;SDS011;553;51.038;7.216;2022-09-21T02:49:21;9.00;;;3.53;;
1128;SDS011;553;51.038;7.216;2022-09-21T02:51:55;5.40;;;4.00;;
1128;SDS011;553;51.038;7.216;2022-09-21T02:54:25;7.63;;;4.10;;
1128;SDS011;553;51.038;7.216;2022-09-21T02:56:55;5.13;;;3.93;;
1128;SDS011;553;51.038;7.216;2022-09-21T02:59:25;4.83;;;3.63;;
1128;SDS011;553;51.038;7.216;2022-09-21T03:01:52;9.33;;;4.63;;
1128;SDS011;553;51.038;7.216;2022-09-21T03:04:21;4.33;;;3.80;;
1128;SDS011;553;51.038;7.216;2022-09-21T03:06:48;4.20;;;3.80;;
1128;SDS011;553;51.038;7.216;2022-09-21T03:09:15;7.47;;;3.83;;
1128;SDS011;553;51.038;7.216;2022-09-21T03:11:42;5.17;;;4.47;;
1128;SDS011;553;51.038;7.216;2022-09-21T03:14:08;7.80;;;4.50;;
1128;SDS011;553;51.038;7.216;2022-09-21T03:16:35;7.53;;;4.90;;
1128;SDS011;553;51.038;7.216;2022-09-21T03:19:02;8.80;;;5.03;;
1128;SDS011;553;51.038;7.216;2022-09-21T03:21:30;7.70;;;5.60;;
1128;SDS011;553;51.038;7.216;2022-09-21T03:23:57;8.80;;;6.00;;
1128;SDS011;553;51.038;7.216;2022-09-21T03:26:23;13.20;;;7.60;;
1128;SDS011;553;51.038;7.216;2022-09-21T03:28:50;9.30;;;6.73;;
1128;SDS011;553;51.038;7.216;2022-09-21T03:31:19;8.67;;;5.83;;
1128;SDS011;553;51.038;7.216;2022-09-21T03:33:47;8.10;;;5.60;;
1128;SDS011;553;51.038;7.216;2022-09-21T03:36:14;11.40;;;6.30;;
1128;SDS011;553;51.038;7.216;2022-09-21T03:38:41;8.93;;;6.17;;
1128;SDS011;553;51.038;7.216;2022-09-21T03:41:08;7.13;;;6.37;;
1128;SDS011;553;51.038;7.216;2022-09-21T03:43:35;8.30;;;5.90;;
1128;SDS011;553;51.038;7.216;2022-09-21T03:46:02;8.60;;;6.40;;
1128;SDS011;553;51.038;7.216;2022-09-21T03:48:28;9.03;;;6.50;;
1128;SDS011;553;51.038;7.216;2022-09-21T03:50:57;8.23;;;5.93;;
1128;SDS011;553;51.038;7.216;2022-09-21T03:53:24;12.20;;;6.77;;
1128;SDS011;553;51.038;7.216;2022-09-21T03:55:51;9.47;;;6.23;;
1128;SDS011;553;51.038;7.216;2022-09-21T03:58:17;8.17;;;6.07;;
1128;SDS011;553;51.038;7.216;2022-09-21T04:00:44;8.17;;;5.73;;
1128;SDS011;553;51.038;7.216;2022-09-21T04:03:11;8.17;;;5.93;;
1128;SDS011;553;51.038;7.216;2022-09-21T04:05:38;8.70;;;6.40;;
1128;SDS011;553;51.038;7.216;2022-09-21T04:08:04;8.20;;;5.20;;
1128;SDS011;553;51.038;7.216;2022-09-21T04:10:32;9.93;;;5.47;;
1128;SDS011;553;51.038;7.216;2022-09-21T04:12:59;10.33;;;6.10;;
1128;SDS011;553;51.038;7.216;2022-09-21T04:15:26;11.20;;;5.30;;
1128;SDS011;553;51.038;7.216;2022-09-21T04:17:54;8.90;;;5.43;;
1128;SDS011;553;51.038;7.216;2022-09-21T04:20:21;7.77;;;5.53;;
1128;SDS011;553;51.038;7.216;2022-09-21T04:22:48;8.20;;;5.50;;
1128;SDS011;553;51.038;7.216;2022-09-21T04:25:16;8.10;;;5.97;;
1128;SDS011;553;51.038;7.216;2022-09-21T04:27:42;8.20;;;6.00;;
1128;SDS011;553;51.038;7.216;2022-09-21T04:30:10;7.20;;;5.47;;
1128;SDS011;553;51.038;7.216;2022-09-21T04:32:38;9.10;;;4.77;;
1128;SDS011;553;51.038;7.216;2022-09-21T04:35:05;8.10;;;5.97;;
1128;SDS011;553;51.038;7.216;2022-09-21T04:37:32;7.17;;;5.03;;
1128;SDS011;553;51.038;7.216;2022-09-21T04:39:59;8.63;;;5.23;;
1128;SDS011;553;51.038;7.216;2022-09-21T04:42:26;6.00;;;5.37;;
1128;SDS011;553;51.038;7.216;2022-09-21T04:44:54;8.70;;;6.07;;
1128;SDS011;553;51.038;7.216;2022-09-21T04:47:21;7.87;;;5.50;;
1128;SDS011;553;51.038;7.216;2022-09-21T04:49:50;9.50;;;6.30;;
1128;SDS011;553;51.038;7.216;2022-09-21T04:52:18;9.60;;;6.33;;
1128;SDS011;553;51.038;7.216;2022-09-21T04:54:45;7.43;;;5.63;;
1128;SDS011;553;51.038;7.216;2022-09-21T04:57:13;12.60;;;5.80;;
1128;SDS011;553;51.038;7.216;2022-09-21T04:59:40;9.47;;;6.53;;
1128;SDS011;553;51.038;7.216;2022-09-21T05:02:06;8.67;;;5.97;;
1128;SDS011;553;51.038;7.216;2022-09-21T05:04:33;11.00;;;6.50;;
1128;SDS011;553;51.038;7.216;2022-09-21T05:07:00;8.47;;;5.80;;
1128;SDS011;553;51.038;7.216;2022-09-21T05:09:27;10.10;;;6.07;;
1128;SDS011;553;51.038;7.216;2022-09-21T05:12:12;8.10;;;5.70;;
1128;SDS011;553;51.038;7.216;2022-09-21T05:14:38;11.63;;;4.90;;
1128;SDS011;553;51.038;7.216;2022-09-21T05:17:06;8.80;;;5.50;;
1128;SDS011;553;51.038;7.216;2022-09-21T05:19:32;10.50;;;6.20;;
1128;SDS011;553;51.038;7.216;2022-09-21T05:21:59;8.53;;;5.80;;
1128;SDS011;553;51.038;7.216;2022-09-21T05:24:26;9.77;;;6.20;;
1128;SDS011;553;51.038;7.216;2022-09-21T05:26:52;10.37;;;8.63;;
1128;SDS011;553;51.038;7.216;2022-09-21T05:29:19;9.13;;;5.90;;
1128;SDS011;553;51.038;7.216;2022-09-21T05:32:38;8.63;;;6.20;;
1128;SDS011;553;51.038;7.216;2022-09-21T05:37:44;9.50;;;6.50;;
1128;SDS011;553;51.038;7.216;2022-09-21T05:40:17;7.83;;;5.63;;
1128;SDS011;553;51.038;7.216;2022-09-21T05:42:44;8.77;;;5.47;;
1128;SDS011;553;51.038;7.216;2022-09-21T05:45:15;6.90;;;5.53;;
1128;SDS011;553;51.038;7.216;2022-09-21T05:55:56;9.10;;;6.50;;
1128;SDS011;553;51.038;7.216;2022-09-21T05:58:36;8.37;;;6.70;;
1128;SDS011;553;51.038;7.216;2022-09-21T06:01:20;9.93;;;5.63;;
1128;SDS011;553;51.038;7.216;2022-09-21T06:04:07;7.93;;;5.37;;
1128;SDS011;553;51.038;7.216;2022-09-21T06:06:37;12.03;;;7.10;;
1128;SDS011;553;51.038;7.216;2022-09-21T06:09:04;8.47;;;4.90;;
1128;SDS011;553;51.038;7.216;2022-09-21T06:11:32;10.37;;;5.83;;
1128;SDS011;553;51.038;7.216;2022-09-21T06:13:59;7.37;;;5.73;;
1128;SDS011;553;51.038;7.216;2022-09-21T06:16:35;8.73;;;6.67;;
1128;SDS011;553;51.038;7.216;2022-09-21T06:19:03;8.73;;;5.60;;
1128;SDS011;553;51.038;7.216;2022-09-21T06:21:29;10.43;;;6.70;;
1128;SDS011;553;51.038;7.216;2022-09-21T06:23:56;11.07;;;6.93;;
1128;SDS011;553;51.038;7.216;2022-09-21T06:26:23;8.60;;;5.40;;
1128;SDS011;553;51.038;7.216;2022-09-21T06:28:49;9.43;;;6.50;;
1128;SDS011;553;51.038;7.216;2022-09-21T06:31:16;15.53;;;6.53;;
1128;SDS011;553;51.038;7.216;2022-09-21T06:33:43;8.67;;;6.77;;
1128;SDS011;553;51.038;7.216;2022-09-21T06:36:13;8.10;;;5.67;;
1128;SDS011;553;51.038;7.216;2022-09-21T06:38:41;9.30;;;6.90;;
1128;SDS011;553;51.038;7.216;2022-09-21T06:41:08;9.97;;;6.87;;
1128;SDS011;553;51.038;7.216;2022-09-21T06:43:34;8.70;;;6.50;;
1128;SDS011;553;51.038;7.216;2022-09-21T06:46:02;10.03;;;6.37;;
1128;SDS011;553;51.038;7.216;2022-09-21T06:48:29;14.90;;;7.07;;
1128;SDS011;553;51.038;7.216;2022-09-21T06:50:58;10.43;;;6.70;;
1128;SDS011;553;51.038;7.216;2022-09-21T06:53:26;15.07;;;6.90;;
1128;SDS011;553;51.038;7.216;2022-09-21T06:56:01;7.00;;;5.10;;
1128;SDS011;553;51.038;7.216;2022-09-21T06:58:29;8.77;;;5.70;;
1128;SDS011;553;51.038;7.216;2022-09-21T07:00:57;7.23;;;5.07;;
1128;SDS011;553;51.038;7.216;2022-09-21T07:03:24;7.17;;;4.40;;
1128;SDS011;553;51.038;7.216;2022-09-21T07:05:50;9.87;;;4.80;;
1128;SDS011;553;51.038;7.216;2022-09-21T07:08:17;5.77;;;3.93;;
1128;SDS011;553;51.038;7.216;2022-09-21T07:11:04;6.80;;;4.23;;
1128;SDS011;553;51.038;7.216;2022-09-21T07:13:31;5.43;;;3.00;;
1128;SDS011;553;51.038;7.216;2022-09-21T07:16:01;5.10;;;3.27;;
1128;SDS011;553;51.038;7.216;2022-09-21T07:18:30;4.87;;;3.53;;
1128;SDS011;553;51.038;7.216;2022-09-21T07:21:08;7.50;;;3.97;;
1128;SDS011;553;51.038;7.216;2022-09-21T07:23:36;6.77;;;4.00;;
1128;SDS011;553;51.038;7.216;2022-09-21T07:26:06;5.57;;;4.07;;
1128;SDS011;553;51.038;7.216;2022-09-21T07:28:34;6.40;;;4.03;;
1128;SDS011;553;51.038;7.216;2022-09-21T07:31:07;7.33;;;4.13;;
1128;SDS011;553;51.038;7.216;2022-09-21T07:33:36;7.47;;;3.93;;
1128;SDS011;553;51.038;7.216;2022-09-21T07:36:03;6.20;;;3.50;;
1128;SDS011;553;51.038;7.216;2022-09-21T07:38:36;5.97;;;3.93;;
1128;SDS011;553;51.038;7.216;2022-09-21T07:41:07;5.07;;;3.37;;
1128;SDS011;553;51.038;7.216;2022-09-21T07:43:35;4.60;;;3.03;;
1128;SDS011;553;51.038;7.216;2022-09-21T07:46:04;6.23;;;2.93;;
1128;SDS011;553;51.038;7.216;2022-09-21T07:48:32;4.83;;;2.77;;
1128;SDS011;553;51.038;7.216;2022-09-21T07:51:08;4.37;;;3.17;;
1128;SDS011;553;51.038;7.216;2022-09-21T07:53:38;6.57;;;2.03;;
1128;SDS011;553;51.038;7.216;2022-09-21T07:56:07;3.90;;;2.10;;
1128;SDS011;553;51.038;7.216;2022-09-21T07:58:36;3.00;;;1.73;;
1128;SDS011;553;51.038;7.216;2022-09-21T08:01:22;3.63;;;1.47;;
1128;SDS011;553;51.038;7.216;2022-09-21T08:03:53;5.83;;;2.13;;
1128;SDS011;553;51.038;7.216;2022-09-21T08:06:22;6.80;;;1.60;;
1128;SDS011;553;51.038;7.216;2022-09-21T08:08:50;8.53;;;2.00;;
1128;SDS011;553;51.038;7.216;2022-09-21T08:11:23;4.37;;;1.40;;
1128;SDS011;553;51.038;7.216;2022-09-21T08:13:51;3.53;;;1.40;;
1128;SDS011;553;51.038;7.216;2022-09-21T08:16:19;6.17;;;1.57;;
1128;SDS011;553;51.038;7.216;2022-09-21T08:18:46;3.73;;;1.50;;
1128;SDS011;553;51.038;7.216;2022-09-21T08:21:13;5.23;;;1.50;;
1128;SDS011;553;51.038;7.216;2022-09-21T08:23:39;3.53;;;1.50;;
1128;SDS011;553;51.038;7.216;2022-09-21T08:26:09;4.93;;;1.30;;
1128;SDS011;553;51.038;7.216;2022-09-21T08:28:37;4.30;;;1.60;;
1128;SDS011;553;51.038;7.216;2022-09-21T08:31:06;3.50;;;1.33;;
1128;SDS011;553;51.038;7.216;2022-09-21T08:33:35;3.33;;;1.70;;
1128;SDS011;553;51.038;7.216;2022-09-21T08:36:02;3.87;;;1.50;;
1128;SDS011;553;51.038;7.216;2022-09-21T08:38:33;2.27;;;1.00;;
1128;SDS011;553;51.038;7.216;2022-09-21T08:41:03;3.50;;;1.40;;
1128;SDS011;553;51.038;7.216;2022-09-21T08:43:42;8.00;;;1.43;;
1128;SDS011;553;51.038;7.216;2022-09-21T08:46:14;3.50;;;1.00;;
1128;SDS011;553;51.038;7.216;2022-09-21T08:48:45;3.60;;;1.53;;
1128;SDS011;553;51.038;7.216;2022-09-21T08:51:36;3.70;;;1.27;;
1128;SDS011;553;51.038;7.216;2022-09-21T08:54:11;3.10;;;1.13;;
1128;SDS011;553;51.038;7.216;2022-09-21T08:56:48;4.03;;;1.17;;
1128;SDS011;553;51.038;7.216;2022-09-21T08:59:30;2.37;;;0.90;;
1128;SDS011;553;51.038;7.216;2022-09-21T09:02:04;2.40;;;1.07;;
1128;SDS011;553;51.038;7.216;2022-09-21T09:04:49;2.27;;;1.00;;
1128;SDS011;553;51.038;7.216;2022-09-21T09:07:50;2.70;;;1.17;;
1128;SDS011;553;51.038;7.216;2022-09-21T09:13:24;6.17;;;1.40;;
1128;SDS011;553;51.038;7.216;2022-09-21T09:21:11;2.97;;;1.10;;
1128;SDS011;553;51.038;7.216;2022-09-21T09:24:09;3.70;;;1.40;;
1128;SDS011;553;51.038;7.216;2022-09-21T09:26:42;2.90;;;1.50;;
1128;SDS011;553;51.038;7.216;2022-09-21T09:32:51;2.00;;;1.03;;
1128;SDS011;553;51.038;7.216;2022-09-21T09:35:28;4.47;;;1.17;;
1128;SDS011;553;51.038;7.216;2022-09-21T09:37:59;4.80;;;1.00;;
1128;SDS011;553;51.038;7.216;2022-09-21T09:46:14;2.57;;;1.03;;
1128;SDS011;553;51.038;7.216;2022-09-21T09:51:19;4.33;;;1.00;;
1128;SDS011;553;51.038;7.216;2022-09-21T09:53:45;3.23;;;1.03;;
1128;SDS011;553;51.038;7.216;2022-09-21T09:56:12;3.03;;;1.07;;
1128;SDS011;553;51.038;7.216;2022-09-21T09:58:41;4.47;;;1.10;;
1128;SDS011;553;51.038;7.216;2022-09-21T10:04:09;3.63;;;1.27;;
1128;SDS011;553;51.038;7.216;2022-09-21T10:06:39;3.63;;;1.10;;
1128;SDS011;553;51.038;7.216;2022-09-21T10:09:19;2.03;;;1.00;;
1128;SDS011;553;51.038;7.216;2022-09-21T10:12:00;4.60;;;0.87;;
1128;SDS011;553;51.038;7.216;2022-09-21T10:14:35;1.77;;;1.00;;
1128;SDS011;553;51.038;7.216;2022-09-21T10:17:05;2.60;;;0.90;;
1128;SDS011;553;51.038;7.216;2022-09-21T10:19:33;2.03;;;0.77;;
1128;SDS011;553;51.038;7.216;2022-09-21T10:22:00;1.70;;;0.70;;
1128;SDS011;553;51.038;7.216;2022-09-21T10:24:36;2.67;;;0.90;;
1128;SDS011;553;51.038;7.216;2022-09-21T10:27:15;2.27;;;1.00;;
1128;SDS011;553;51.038;7.216;2022-09-21T10:29:46;3.30;;;1.03;;
1128;SDS011;553;51.038;7.216;2022-09-21T10:37:33;2.30;;;1.10;;
1128;SDS011;553;51.038;7.216;2022-09-21T10:42:45;3.33;;;1.10;;
1128;SDS011;553;51.038;7.216;2022-09-21T10:45:19;3.00;;;0.87;;
1128;SDS011;553;51.038;7.216;2022-09-21T10:47:54;4.30;;;1.30;;
1128;SDS011;553;51.038;7.216;2022-09-21T11:01:36;3.57;;;0.90;;
1128;SDS011;553;51.038;7.216;2022-09-21T11:04:18;3.30;;;0.90;;
1128;SDS011;553;51.038;7.216;2022-09-21T11:13:13;4.03;;;1.00;;
1128;SDS011;553;51.038;7.216;2022-09-21T11:15:56;3.90;;;1.07;;
1128;SDS011;553;51.038;7.216;2022-09-21T11:18:39;2.60;;;0.90;;
1128;SDS011;553;51.038;7.216;2022-09-21T11:21:16;2.53;;;0.90;;
1128;SDS011;553;51.038;7.216;2022-09-21T11:29:26;1.77;;;0.93;;
1128;SDS011;553;51.038;7.216;2022-09-21T11:32:16;3.30;;;0.87;;
1128;SDS011;553;51.038;7.216;2022-09-21T11:38:10;2.60;;;1.10;;
1128;SDS011;553;51.038;7.216;2022-09-21T11:41:28;2.87;;;1.07;;
1128;SDS011;553;51.038;7.216;2022-09-21T11:49:38;2.00;;;0.73;;
1128;SDS011;553;51.038;7.216;2022-09-21T11:52:36;2.40;;;0.97;;
1128;SDS011;553;51.038;7.216;2022-09-21T11:59:00;5.97;;;1.20;;
1128;SDS011;553;51.038;7.216;2022-09-21T12:07:06;2.67;;;1.30;;
1128;SDS011;553;51.038;7.216;2022-09-21T12:10:02;2.97;;;0.97;;
1128;SDS011;553;51.038;7.216;2022-09-21T12:12:48;5.10;;;1.13;;
1128;SDS011;553;51.038;7.216;2022-09-21T12:15:30;1.90;;;0.80;;
1128;SDS011;553;51.038;7.216;2022-09-21T12:21:12;2.37;;;1.00;;
1128;SDS011;553;51.038;7.216;2022-09-21T12:23:45;1.20;;;0.80;;
1128;SDS011;553;51.038;7.216;2022-09-21T12:26:26;3.47;;;1.43;;
1128;SDS011;553;51.038;7.216;2022-09-21T12:29:03;2.93;;;1.10;;
1128;SDS011;553;51.038;7.216;2022-09-21T12:31:38;2.30;;;0.50;;
1128;SDS011;553;51.038;7.216;2022-09-21T12:34:14;4.43;;;0.70;;
1128;SDS011;553;51.038;7.216;2022-09-21T12:37:06;2.03;;;1.10;;
1128;SDS011;553;51.038;7.216;2022-09-21T12:42:56;2.43;;;0.63;;
1128;SDS011;553;51.038;7.216;2022-09-21T12:45:40;3.13;;;0.87;;
1128;SDS011;553;51.038;7.216;2022-09-21T12:51:05;2.23;;;0.90;;
1128;SDS011;553;51.038;7.216;2022-09-21T12:53:39;1.83;;;0.60;;
1128;SDS011;553;51.038;7.216;2022-09-21T12:56:21;3.40;;;0.87;;
1128;SDS011;553;51.038;7.216;2022-09-21T13:01:57;1.63;;;0.70;;
1128;SDS011;553;51.038;7.216;2022-09-21T13:12:53;2.63;;;0.70;;
1128;SDS011;553;51.038;7.216;2022-09-21T13:15:26;2.70;;;1.00;;
1128;SDS011;553;51.038;7.216;2022-09-21T13:17:57;2.70;;;1.07;;
1128;SDS011;553;51.038;7.216;2022-09-21T13:20:33;1.53;;;0.70;;
1128;SDS011;553;51.038;7.216;2022-09-21T13:23:02;2.03;;;0.80;;
1128;SDS011;553;51.038;7.216;2022-09-21T13:25:30;1.10;;;0.93;;
1128;SDS011;553;51.038;7.216;2022-09-21T13:30:39;5.30;;;1.00;;
1128;SDS011;553;51.038;7.216;2022-09-21T13:38:26;2.77;;;0.70;;
1128;SDS011;553;51.038;7.216;2022-09-21T13:41:01;3.07;;;0.73;;
1128;SDS011;553;51.038;7.216;2022-09-21T13:54:27;2.50;;;0.90;;
1128;SDS011;553;51.038;7.216;2022-09-21T13:57:02;7.40;;;0.83;;
1128;SDS011;553;51.038;7.216;2022-09-21T13:59:42;2.97;;;0.87;;
1128;SDS011;553;51.038;7.216;2022-09-21T14:02:23;1.87;;;0.80;;
1128;SDS011;553;51.038;7.216;2022-09-21T14:04:53;1.93;;;0.80;;
1128;SDS011;553;51.038;7.216;2022-09-21T14:07:21;1.93;;;0.70;;
1128;SDS011;553;51.038;7.216;2022-09-21T14:09:56;1.20;;;0.70;;
1128;SDS011;553;51.038;7.216;2022-09-21T14:12:26;4.93;;;1.10;;
1128;SDS011;553;51.038;7.216;2022-09-21T14:17:43;1.30;;;0.43;;
1128;SDS011;553;51.038;7.216;2022-09-21T14:23:10;2.20;;;0.80;;
1128;SDS011;553;51.038;7.216;2022-09-21T14:25:48;3.40;;;1.07;;
1128;SDS011;553;51.038;7.216;2022-09-21T14:28:24;4.80;;;0.90;;
1128;SDS011;553;51.038;7.216;2022-09-21T14:31:20;1.73;;;0.80;;
1128;SDS011;553;51.038;7.216;2022-09-21T14:33:53;2.50;;;0.70;;
1128;SDS011;553;51.038;7.216;2022-09-21T14:36:27;2.67;;;1.00;;
1128;SDS011;553;51.038;7.216;2022-09-21T14:39:13;6.30;;;3.33;;
1128;SDS011;553;51.038;7.216;2022-09-21T14:41:44;2.40;;;1.13;;
1128;SDS011;553;51.038;7.216;2022-09-21T14:44:17;2.80;;;0.67;;
1128;SDS011;553;51.038;7.216;2022-09-21T14:46:53;3.53;;;0.60;;
1128;SDS011;553;51.038;7.216;2022-09-21T14:53:02;1.90;;;0.70;;
1128;SDS011;553;51.038;7.216;2022-09-21T14:55:57;1.90;;;0.83;;
1128;SDS011;553;51.038;7.216;2022-09-21T15:07:13;2.20;;;0.83;;
1128;SDS011;553;51.038;7.216;2022-09-21T15:13:08;2.73;;;0.70;;
1128;SDS011;553;51.038;7.216;2022-09-21T15:18:39;1.57;;;0.50;;
1128;SDS011;553;51.038;7.216;2022-09-21T15:21:24;1.93;;;0.70;;
1128;SDS011;553;51.038;7.216;2022-09-21T15:23:53;2.20;;;0.70;;
1128;SDS011;553;51.038;7.216;2022-09-21T15:26:29;4.17;;;0.90;;
1128;SDS011;553;51.038;7.216;2022-09-21T15:29:00;4.67;;;1.20;;
1128;SDS011;553;51.038;7.216;2022-09-21T15:31:37;2.13;;;0.77;;
1128;SDS011;553;51.038;7.216;2022-09-21T15:34:05;2.83;;;1.50;;
1128;SDS011;553;51.038;7.216;2022-09-21T15:36:36;2.33;;;0.77;;
1128;SDS011;553;51.038;7.216;2022-09-21T15:39:04;2.50;;;0.90;;
1128;SDS011;553;51.038;7.216;2022-09-21T15:44:16;1.90;;;0.70;;
1128;SDS011;553;51.038;7.216;2022-09-21T15:46:50;3.10;;;0.90;;
1128;SDS011;553;51.038;7.216;2022-09-21T15:49:26;4.20;;;0.90;;
1128;SDS011;553;51.038;7.216;2022-09-21T15:51:55;2.40;;;0.90;;
1128;SDS011;553;51.038;7.216;2022-09-21T15:54:30;2.10;;;1.10;;
1128;SDS011;553;51.038;7.216;2022-09-21T15:57:03;4.83;;;1.10;;
1128;SDS011;553;51.038;7.216;2022-09-21T15:59:33;2.97;;;0.90;;
1128;SDS011;553;51.038;7.216;2022-09-21T16:02:08;0.80;;;0.60;;
1128;SDS011;553;51.038;7.216;2022-09-21T16:04:38;1.33;;;0.70;;
1128;SDS011;553;51.038;7.216;2022-09-21T16:07:33;3.57;;;0.87;;
1128;SDS011;553;51.038;7.216;2022-09-21T16:10:03;2.67;;;0.67;;
1128;SDS011;553;51.038;7.216;2022-09-21T16:13:09;2.67;;;0.90;;
1128;SDS011;553;51.038;7.216;2022-09-21T16:16:00;4.20;;;2.03;;
1128;SDS011;553;51.038;7.216;2022-09-21T16:18:28;3.33;;;1.70;;
1128;SDS011;553;51.038;7.216;2022-09-21T16:21:07;2.40;;;1.07;;
1128;SDS011;553;51.038;7.216;2022-09-21T16:23:38;2.40;;;0.70;;
1128;SDS011;553;51.038;7.216;2022-09-21T16:26:05;2.87;;;0.60;;
1128;SDS011;553;51.038;7.216;2022-09-21T16:28:39;1.20;;;0.60;;
1128;SDS011;553;51.038;7.216;2022-09-21T16:31:20;2.57;;;1.40;;
1128;SDS011;553;51.038;7.216;2022-09-21T16:38:53;1.97;;;0.87;;
1128;SDS011;553;51.038;7.216;2022-09-21T16:41:21;4.20;;;0.90;;
1128;SDS011;553;51.038;7.216;2022-09-21T16:43:49;2.77;;;1.10;;
1128;SDS011;553;51.038;7.216;2022-09-21T16:46:17;3.03;;;0.83;;
1128;SDS011;553;51.038;7.216;2022-09-21T16:48:44;1.77;;;0.57;;
1128;SDS011;553;51.038;7.216;2022-09-21T16:51:11;7.40;;;1.33;;
1128;SDS011;553;51.038;7.216;2022-09-21T16:53:39;3.33;;;1.10;;
1128;SDS011;553;51.038;7.216;2022-09-21T16:56:11;4.80;;;2.30;;
1128;SDS011;553;51.038;7.216;2022-09-21T16:58:40;1.73;;;1.30;;
1128;SDS011;553;51.038;7.216;2022-09-21T17:01:09;4.10;;;1.30;;
1128;SDS011;553;51.038;7.216;2022-09-21T17:03:44;3.00;;;1.30;;
1128;SDS011;553;51.038;7.216;2022-09-21T17:06:16;2.33;;;1.50;;
1128;SDS011;553;51.038;7.216;2022-09-21T17:08:44;1.63;;;1.20;;
1128;SDS011;553;51.038;7.216;2022-09-21T17:11:16;5.87;;;1.10;;
1128;SDS011;553;51.038;7.216;2022-09-21T17:13:50;5.73;;;1.60;;
1128;SDS011;553;51.038;7.216;2022-09-21T17:16:19;2.30;;;1.27;;
1128;SDS011;553;51.038;7.216;2022-09-21T17:18:46;5.43;;;1.80;;
1128;SDS011;553;51.038;7.216;2022-09-21T17:21:14;3.57;;;1.90;;
1128;SDS011;553;51.038;7.216;2022-09-21T17:23:42;3.10;;;1.73;;
1128;SDS011;553;51.038;7.216;2022-09-21T17:26:11;5.93;;;2.63;;
1128;SDS011;553;51.038;7.216;2022-09-21T17:28:46;6.53;;;2.30;;
1128;SDS011;553;51.038;7.216;2022-09-21T17:31:14;3.50;;;1.77;;
1128;SDS011;553;51.038;7.216;2022-09-21T17:33:41;3.83;;;2.47;;
1128;SDS011;553;51.038;7.216;2022-09-21T17:36:12;3.00;;;2.10;;
1128;SDS011;553;51.038;7.216;2022-09-21T17:38:39;5.23;;;2.10;;
1128;SDS011;553;51.038;7.216;2022-09-21T17:44:02;2.40;;;1.50;;
1128;SDS011;553;51.038;7.216;2022-09-21T17:46:45;4.80;;;2.20;;
1128;SDS011;553;51.038;7.216;2022-09-21T17:49:30;6.20;;;2.40;;
1128;SDS011;553;51.038;7.216;2022-09-21T17:51:57;4.40;;;3.63;;
1128;SDS011;553;51.038;7.216;2022-09-21T17:54:43;5.50;;;4.50;;
1128;SDS011;553;51.038;7.216;2022-09-21T18:00:10;5.07;;;3.50;;
1128;SDS011;553;51.038;7.216;2022-09-21T18:02:41;5.73;;;3.20;;
1128;SDS011;553;51.038;7.216;2022-09-21T18:05:14;6.00;;;5.00;;
1128;SDS011;553;51.038;7.216;2022-09-21T18:07:41;7.37;;;4.60;;
1128;SDS011;553;51.038;7.216;2022-09-21T18:10:10;10.93;;;4.97;;
1128;SDS011;553;51.038;7.216;2022-09-21T18:15:29;8.53;;;4.63;;
1128;SDS011;553;51.038;7.216;2022-09-21T18:18:13;8.67;;;3.93;;
1128;SDS011;553;51.038;7.216;2022-09-21T18:21:03;6.80;;;4.27;;
1128;SDS011;553;51.038;7.216;2022-09-21T18:23:41;5.90;;;2.97;;
1128;SDS011;553;51.038;7.216;2022-09-21T18:26:28;4.93;;;3.00;;
1128;SDS011;553;51.038;7.216;2022-09-21T18:28:55;3.63;;;2.87;;
1128;SDS011;553;51.038;7.216;2022-09-21T18:31:28;3.20;;;2.40;;
1128;SDS011;553;51.038;7.216;2022-09-21T18:34:30;3.87;;;2.43;;
1128;SDS011;553;51.038;7.216;2022-09-21T18:39:56;7.60;;;2.63;;
1128;SDS011;553;51.038;7.216;2022-09-21T18:45:21;5.50;;;2.57;;
1128;SDS011;553;51.038;7.216;2022-09-21T18:50:46;6.47;;;2.43;;
1128;SDS011;553;51.038;7.216;2022-09-21T18:56:14;3.50;;;2.03;;
1128;SDS011;553;51.038;7.216;2022-09-21T18:58:41;3.43;;;1.70;;
1128;SDS011;553;51.038;7.216;2022-09-21T19:01:11;3.80;;;1.60;;
1128;SDS011;553;51.038;7.216;2022-09-21T19:03:39;3.60;;;1.93;;
1128;SDS011;553;51.038;7.216;2022-09-21T19:06:20;3.03;;;1.90;;
1128;SDS011;553;51.038;7.216;2022-09-21T19:11:55;5.03;;;2.07;;
1128;SDS011;553;51.038;7.216;2022-09-21T19:14:48;3.93;;;1.93;;
1128;SDS011;553;51.038;7.216;2022-09-21T19:23:08;2.43;;;1.60;;
1128;SDS011;553;51.038;7.216;2022-09-21T19:25:52;5.07;;;1.77;;